Latest Weather Observations for Port Lincoln Airport

IDS60801

Issued at 11:35 am CST Monday 15 September 2014 (issued every 30 minutes, with the page automatically refreshed every 10 minutes)

About weather observations | Map of weather stations | Latest weather observations for SA | Other Formats
Station Details ID: 018192 Name: PORT LINCOLN AWS Lat: -34.60 Lon: 135.88 Height: 8.5 m
Data from the previous 72 hours. | See also: Recent months at Port Lincoln Airport
Date/Time
CST
Temp
°C
App
Temp
°C
Dew
Point
Rel
Hum
%
Delta-T
°C
Wind Press
QNH
hPa
Press
MSL
hPa
Rain
since 9 am
mm
Dir
 
Spd
km/h
Gust
km/h
Spd
kts
Gust
kts
15/11:30am 17.0 11.7 11.3 69 3.1 SSW 30 41 16 22 1017.2 1017.2 0.0
15/11:00am 17.5 12.5 11.1 66 3.5 SW 28 39 15 21 1017.2 1017.2 0.0
15/10:30am 18.0 12.9 11.8 67 3.4 SSW 30 43 16 23 1017.1 1017.1 0.0
15/10:00am 17.5 11.4 10.6 64 3.7 SSW 33 46 18 25 1017.0 1017.0 0.0
15/09:30am 17.3 11.0 10.9 66 3.4 SSW 35 46 19 25 1016.7 1016.7 0.0
15/09:00am 15.3 9.5 10.9 75 2.3 SW 32 43 17 23 1016.5 1016.5 0.0
15/08:30am 15.8 10.5 11.2 74 2.5 SSW 30 41 16 22 1016.2 1016.2 0.0
15/08:00am 15.0 9.9 11.8 81 1.7 SSW 30 39 16 21 1015.8 1015.8 0.0
15/07:30am 14.8 11.1 11.4 80 1.8 SW 22 33 12 18 1015.3 1015.3 0.0
15/07:00am 13.8 9.5 10.8 82 1.6 SW 24 32 13 17 1015.0 1015.0 0.0
15/06:30am 13.9 10.0 10.7 81 1.7 SW 22 33 12 18 1014.4 1014.4 0.0
15/06:00am 14.0 10.6 11.2 83 1.5 SW 20 28 11 15 1013.9 1013.9 0.0
15/05:30am 14.2 10.1 11.4 83 1.5 SW 24 33 13 18 1013.4 1013.4 0.0
15/05:00am 14.2 9.4 11.5 84 1.4 SW 28 41 15 22 1013.1 1013.1 0.0
15/04:30am 14.1 9.1 12.1 88 1.1 SW 30 41 16 22 1012.7 1012.7 0.0
15/04:00am 14.4 9.8 12.3 87 1.1 SW 28 39 15 21 1012.2 1012.2 0.0
15/03:30am 14.5 11.3 12.0 85 1.4 SW 20 30 11 16 1011.8 1011.8 0.0
15/03:00am 14.3 11.0 11.6 84 1.4 SW 20 28 11 15 1011.6 1011.6 0.0
15/02:30am 13.9 11.0 12.3 90 0.9 SW 19 28 10 15 1011.5 1011.5 0.0
15/02:00am 14.2 11.6 13.1 93 0.6 W 19 24 10 13 1011.1 1011.1 0.0
15/01:30am 12.9 9.9 12.0 94 0.5 W 19 22 10 12 1010.9 1010.9 0.0
15/01:00am 12.5 10.5 11.4 93 0.6 WNW 13 17 7 9 1011.0 1011.0 0.0
15/12:30am 13.1 11.1 11.5 90 0.8 WNW 13 17 7 9 1010.9 1010.9 0.0
15/12:00am 14.1 13.1 12.3 89 1.0 WNW 9 11 5 6 1011.1 1011.1 0.0
 
Date/Time
CST
Temp
°C
App
Temp
°C
Dew
Point
Rel
Hum
%
Delta-T
°C
Wind Press
QNH
hPa
Press
MSL
hPa
Rain
since 9 am
mm
Dir
 
Spd
km/h
Gust
km/h
Spd
kts
Gust
kts
14/11:30pm 14.4 13.0 12.3 87 1.1 NW 11 15 6 8 1011.2 1011.2 0.0
14/11:00pm 14.3 12.1 12.0 86 1.2 NNW 15 20 8 11 1011.4 1011.4 0.0
14/10:30pm 15.3 12.3 12.4 83 1.6 NW 20 26 11 14 1011.8 1011.8 0.0
14/10:00pm 15.4 12.9 12.2 81 1.7 NW 17 20 9 11 1012.2 1012.2 0.0
14/09:30pm 15.4 12.5 12.2 81 1.7 NW 19 24 10 13 1012.3 1012.3 0.0
14/09:00pm 15.1 14.2 11.3 78 2.0 N 7 9 4 5 1012.4 1012.4 0.0
14/08:30pm 15.2 13.8 11.0 76 2.2 WNW 9 13 5 7 1012.6 1012.6 0.0
14/08:00pm 15.1 11.9 11.1 77 2.1 NW 19 24 10 13 1012.6 1012.6 0.0
14/07:30pm 14.5 12.7 10.9 79 1.9 W 11 17 6 9 1012.5 1012.5 0.0
14/07:00pm 14.5 12.0 11.1 80 1.8 WNW 15 24 8 13 1012.0 1012.0 0.0
14/06:30pm 14.8 11.3 11.0 78 2.0 W 20 30 11 16 1011.9 1011.9 0.0
14/06:00pm 15.4 12.1 11.6 78 2.0 WNW 20 30 11 16 1011.7 1011.7 0.0
14/05:30pm 16.8 12.1 12.1 74 2.6 WNW 28 35 15 19 1011.3 1011.3 0.0
14/05:00pm 18.0 13.7 13.1 73 2.8 W 28 35 15 19 1011.1 1011.1 0.0
14/04:30pm 19.2 14.9 13.2 68 3.4 W 28 33 15 18 1010.8 1010.8 0.0
14/04:00pm 20.4 19.1 12.4 60 4.5 SW 11 20 6 11 1010.9 1010.9 0.0
14/03:30pm 18.5 17.0 11.8 65 3.7 SSE 11 17 6 9 1010.9 1010.9 0.0
14/03:00pm 19.0 17.4 10.3 57 4.7 E 9 13 5 7 1011.2 1011.2 0.0
14/02:30pm 18.5 16.8 11.1 62 4.0 E 11 19 6 10 1011.6 1011.6 0.0
14/02:00pm 19.2 17.4 12.2 64 3.9 E 13 20 7 11 1011.8 1011.8 0.0
14/01:30pm 18.2 15.1 12.2 68 3.3 E 20 28 11 15 1011.8 1011.8 0.0
14/01:00pm 17.9 13.2 12.1 69 3.2 ENE 28 35 15 19 1012.2 1012.2 0.0
14/12:30pm 17.8 13.5 13.1 74 2.6 ENE 28 35 15 19 1013.0 1013.0 0.0
14/12:00pm 17.5 12.3 12.8 74 2.6 ENE 32 39 17 21 1013.5 1013.5 0.0
14/11:30am 17.1 12.5 12.2 73 2.7 ENE 28 35 15 19 1014.6 1014.6 0.0
14/11:00am 16.8 12.0 11.7 72 2.8 NE 28 33 15 18 1015.3 1015.3 0.0
14/10:30am 16.5 12.7 12.3 76 2.3 ENE 24 32 13 17 1015.9 1015.9 0.0
14/10:00am 16.4 13.4 12.6 78 2.1 ENE 20 30 11 16 1016.6 1016.6 0.0
14/09:30am 15.9 12.9 12.5 80 1.9 ENE 20 26 11 14 1017.5 1017.5 0.0
14/09:00am 15.6 12.8 12.5 82 1.7 E 19 22 10 12 1018.0 1018.0 0.0
14/08:30am 14.8 12.3 12.3 85 1.4 E 17 22 9 12 1018.0 1018.0 0.0
14/08:00am 14.2 12.4 12.2 88 1.1 E 13 19 7 10 1018.2 1018.2 0.0
14/07:30am 13.2 11.1 12.3 94 0.5 E 15 19 8 10 1017.9 1017.9 0.0
14/07:00am 10.6 10.6 9.8 95 0.4 CALM 0 0 0 0 1017.9 1017.9 0.0
14/06:30am 11.3 10.6 10.0 92 0.7 NNE 4 9 2 5 1017.4 1017.4 0.0
14/06:00am 12.4 10.3 11.1 92 0.7 ENE 13 17 7 9 1017.2 1017.2 0.0
14/05:30am 12.3 9.8 10.9 91 0.7 E 15 19 8 10 1017.1 1017.1 0.0
14/05:00am 12.5 9.3 11.2 92 0.7 E 19 22 10 12 1017.4 1017.4 0.0
14/04:30am 11.2 9.7 10.6 96 0.3 E 9 15 5 8 1018.1 1018.1 0.0
14/04:00am 11.4 9.6 10.8 96 0.3 ESE 11 13 6 7 1018.6 1018.6 0.0
14/03:30am 11.2 8.9 10.4 95 0.4 ESE 13 15 7 8 1018.3 1018.3 0.0
14/03:00am 12.0 9.5 11.1 94 0.5 ESE 15 20 8 11 1018.2 1018.2 0.0
14/02:30am 10.9 8.9 10.3 96 0.3 ESE 11 13 6 7 1018.4 1018.4 0.0
14/02:01am 11.0 10.9 10.7 98 0.2 E 2 9 1 5 1018.4 1018.4 0.0
14/02:00am 10.8 11.0 10.5 98 0.2 CALM 0 9 0 5 1018.4 1018.4 0.0
14/01:41am 8.4 6.8 7.8 96 0.3 NNE 6 11 3 6 1018.6 1018.6 0.0
14/01:30am 10.1 8.7 9.6 97 0.2 NE 7 11 4 6 1018.7 1018.7 0.0
14/01:00am 10.2 10.2 9.7 97 0.3 CALM 0 7 0 4 1019.5 1019.5 0.0
14/12:30am 9.6 8.2 8.8 95 0.4 S 6 7 3 4 1019.7 1019.7 0.0
14/12:00am 12.7 10.9 12.2 97 0.3 E 13 17 7 9 1019.6 1019.6 0.0
 
Date/Time
CST
Temp
°C
App
Temp
°C
Dew
Point
Rel
Hum
%
Delta-T
°C
Wind Press
QNH
hPa
Press
MSL
hPa
Rain
since 9 am
mm
Dir
 
Spd
km/h
Gust
km/h
Spd
kts
Gust
kts
13/11:30pm 10.5 9.8 10.2 98 0.2 NNE 4 9 2 5 1019.8 1019.8 0.0
13/11:00pm 9.0 8.0 8.7 98 0.1 ENE 4 9 2 5 1020.2 1020.2 0.0
13/10:49pm 8.0 7.4 7.6 97 0.2 CALM 0 0 0 0 1020.6 1020.6 0.0
13/10:30pm 7.3 6.5 6.7 96 0.3 CALM 0 0 0 0 1020.9 1020.9 0.0
13/10:22pm 6.8 5.9 6.2 96 0.3 CALM 0 0 0 0 1021.0 1021.0 0.0
13/10:00pm 7.8 7.2 7.2 96 0.3 CALM 0 0 0 0 1021.1 1021.1 0.0
13/09:30pm 8.6 8.1 8.0 96 0.3 CALM 0 6 0 3 1021.7 1021.7 0.0
13/09:00pm 7.9 7.2 7.1 95 0.4 CALM 0 0 0 0 1021.8 1021.8 0.0
13/08:30pm 8.9 8.5 8.1 95 0.4 CALM 0 0 0 0 1021.7 1021.7 0.0
13/08:00pm 9.7 9.4 8.8 94 0.4 CALM 0 0 0 0 1021.6 1021.6 0.0
13/07:30pm 10.8 10.7 9.6 92 0.6 CALM 0 0 0 0 1021.3 1021.3 0.0
13/07:00pm 11.9 10.8 10.1 89 0.9 E 6 7 3 4 1021.2 1021.2 0.0
13/06:30pm 12.9 11.8 10.8 87 1.1 ESE 7 9 4 5 1021.1 1021.1 0.0
13/06:00pm 13.8 11.7 11.1 84 1.4 ESE 13 15 7 8 1020.9 1020.9 0.0
13/05:30pm 14.8 12.8 11.4 80 1.8 SE 13 17 7 9 1020.6 1020.6 0.0
13/05:00pm 15.8 13.7 11.2 74 2.5 ESE 13 17 7 9 1020.4 1020.4 0.0
13/04:30pm 16.0 13.5 11.0 72 2.7 SSE 15 19 8 10 1020.2 1020.2 0.0
13/04:00pm 16.8 15.3 11.9 73 2.7 E 11 17 6 9 1020.0 1020.0 0.0
13/03:30pm 16.6 14.6 11.5 72 2.8 ENE 13 17 7 9 1020.0 1020.0 0.0
13/03:00pm 16.4 14.5 11.8 74 2.5 E 13 19 7 10 1020.2 1020.2 0.0
13/02:30pm 16.5 14.5 11.4 72 2.7 E 13 17 7 9 1020.2 1020.2 0.0
13/02:00pm 16.3 13.8 11.2 72 2.7 ENE 15 20 8 11 1020.3 1020.3 0.0
13/01:30pm 16.4 13.6 11.3 72 2.7 ENE 17 20 9 11 1020.8 1020.8 0.0
13/01:00pm 17.0 15.9 12.1 73 2.7 ENE 9 15 5 8 1021.5 1021.5 0.0
13/12:30pm 16.3 14.2 11.2 72 2.7 E 13 17 7 9 1022.0 1022.0 0.0
13/12:00pm 16.1 14.1 11.5 74 2.5 E 13 17 7 9 1022.5 1022.5 0.0
13/11:30am 15.9 13.4 10.9 72 2.7 E 15 20 8 11 1022.7 1022.7 0.0
13/11:00am 15.8 13.2 10.8 72 2.7 E 15 19 8 10 1023.1 1023.1 0.0
13/10:30am 15.4 12.8 10.6 73 2.5 ENE 15 19 8 10 1023.3 1023.3 0.0
13/10:00am 15.1 13.2 10.5 74 2.4 ENE 11 17 6 9 1023.7 1023.7 0.0
13/09:30am 14.4 12.4 10.0 75 2.3 NE 11 15 6 8 1023.9 1023.9 0.0
13/09:00am 13.8 12.6 10.2 79 1.9 ENE 7 13 4 7 1024.0 1024.0 0.0
13/08:30am 12.2 12.1 9.6 84 1.3 CALM 0 0 0 0 1024.2 1024.2 0.0
13/08:00am 10.8 9.5 9.9 94 0.5 NW 7 9 4 5 1024.2 1024.2 0.0
13/07:30am 7.5 5.1 7.1 97 0.2 NW 9 9 5 5 1024.1 1024.1 0.0
13/07:00am 4.9 1.6 4.5 97 0.2 NW 11 13 6 7 1024.1 1024.1 0.0
13/06:30am 5.1 1.4 4.7 97 0.2 WNW 13 15 7 8 1024.0 1024.0 0.0
13/06:00am 5.0 1.7 4.6 97 0.2 WNW 11 11 6 6 1024.0 1024.0 0.0
13/05:30am 5.1 1.4 4.5 96 0.3 NW 13 15 7 8 1024.0 1024.0 0.0
13/05:00am 4.9 1.6 4.5 97 0.2 NW 11 13 6 7 1024.0 1024.0 0.0
13/04:30am 4.9 1.6 4.5 97 0.2 WNW 11 13 6 7 1023.9 1023.9 0.0
13/04:00am 4.3 1.2 3.7 96 0.2 NW 9 9 5 5 1024.0 1024.0 0.0
13/03:30am 4.7 1.7 4.1 96 0.3 NNW 9 11 5 6 1023.9 1023.9 0.0
13/03:00am 4.4 1.3 3.8 96 0.2 NW 9 11 5 6 1024.2 1024.2 0.0
13/02:30am 4.4 1.7 3.8 96 0.2 NW 7 9 4 5 1024.4 1024.4 0.0
13/02:00am 4.6 1.6 4.0 96 0.3 NW 9 9 5 5 1024.7 1024.7 0.0
13/01:30am 4.6 1.9 3.9 95 0.3 NW 7 9 4 5 1024.9 1024.9 0.0
13/01:00am 5.1 2.2 4.5 96 0.3 NW 9 11 5 6 1025.2 1025.2 0.0
13/12:30am 5.5 2.2 4.8 95 0.3 NW 11 13 6 7 1025.5 1025.5 0.0
13/12:00am 4.8 1.8 3.9 94 0.4 NW 9 11 5 6 1025.7 1025.7 0.0
 
Date/Time
CST
Temp
°C
App
Temp
°C
Dew
Point
Rel
Hum
%
Delta-T
°C
Wind Press
QNH
hPa
Press
MSL
hPa
Rain
since 9 am
mm
Dir
 
Spd
km/h
Gust
km/h
Spd
kts
Gust
kts
12/11:30pm 5.7 2.1 4.8 94 0.4 NW 13 15 7 8 1026.0 1026.0 0.0
12/11:00pm 5.9 2.7 4.9 93 0.4 NW 11 13 6 7 1026.4 1026.4 0.0
12/10:30pm 5.7 2.0 4.5 92 0.5 WNW 13 15 7 8 1026.7 1026.7 0.0
12/10:00pm 6.3 3.5 5.3 93 0.4 NW 9 11 5 6 1026.5 1026.5 0.0
12/09:30pm 6.2 5.1 5.2 93 0.4 CALM 0 0 0 0 1026.6 1026.6 0.0
12/09:00pm 6.3 5.2 5.3 93 0.4 CALM 0 0 0 0 1026.5 1026.5 0.0
12/08:30pm 6.1 3.8 4.7 91 0.6 W 6 7 3 4 1026.6 1026.6 0.0
12/08:00pm 6.0 4.3 3.8 86 0.9 SE 2 6 1 3 1026.3 1026.3 0.0
12/07:30pm 9.5 7.3 6.0 79 1.6 E 7 11 4 6 1026.2 1026.2 0.0
12/07:00pm 10.6 7.8 6.9 78 1.7 E 11 15 6 8 1026.2 1026.2 0.0
12/06:30pm 11.7 8.6 7.2 74 2.1 E 13 17 7 9 1026.0 1026.0 0.0
12/06:00pm 13.2 10.2 7.6 69 2.7 E 13 17 7 9 1026.0 1026.0 0.0
12/05:30pm 13.7 10.7 7.5 66 3.0 E 13 17 7 9 1026.1 1026.1 0.0
12/05:00pm 13.9 10.8 7.2 64 3.3 E 13 17 7 9 1026.0 1026.0 0.0
12/04:30pm 14.3 10.9 7.8 65 3.2 E 15 19 8 10 1026.1 1026.1 0.0
12/04:00pm 14.6 10.8 7.6 63 3.5 E 17 20 9 11 1026.0 1026.0 0.0
12/03:30pm 15.5 12.2 9.6 68 3.0 E 17 20 9 11 1026.1 1026.1 0.0
12/03:00pm 15.0 11.8 8.3 64 3.4 ENE 15 19 8 10 1026.2 1026.2 0.0
12/02:30pm 15.7 12.3 9.1 65 3.4 ENE 17 20 9 11 1026.1 1026.1 0.0
12/02:00pm 15.4 12.4 9.1 66 3.2 ENE 15 19 8 10 1026.4 1026.4 0.0
12/01:30pm 15.4 12.0 9.1 66 3.2 E 17 20 9 11 1026.6 1026.6 0.0
12/01:00pm 15.4 11.6 7.7 60 3.8 E 17 20 9 11 1027.0 1027.0 0.0
12/12:30pm 15.3 12.3 7.8 61 3.7 E 13 19 7 10 1027.4 1027.4 0.0
12/12:00pm 15.3 13.4 7.6 60 3.8 SE 7 13 4 7 1027.8 1027.8 0.0

Other Formats:

Comma delimited format used in spreadsheet applications
http://www.bom.gov.au/fwo/IDS60801/IDS60801.95661.axf

JavaScript Object Notation format (JSON) in row-major order
http://www.bom.gov.au/fwo/IDS60801/IDS60801.95661.json